Terminal Aerodrome Forecast
Issued by NWS Corpus Christi, TX

Current Version | Previous Version | Text Only | Print | Product List | Glossary Off
Versions: 1 2 3 4 5 6 7 8 9 10 11 12 13 14 15

000
FTUS44 KCRP 010500
TAFCRP
TAF
KCRP 010531Z 0106/0206 14008KT P6SM FEW020 SCT250
     FM010900 17005KT P6SM SCT015
      TEMPO 0110/0113 5SM BR BKN015
     FM011400 16009KT P6SM SCT025
     FM011800 14014G21KT P6SM SCT040 SCT100
     FM020100 13012KT P6SM SCT020=

USA.gov is the U.S. government's official web portal to all federal, state and local government web resources and services.